Los Angeles, CA

11:38 AM PST on December 25, 2014 (GMT -0800)
Natural History Museum | Change Station
CLOSE
Current Station
Personal Weather Station
Location: Los Angeles, CA
Elevation: 207 ft
Nearby Weather Stations
Active Advisory: High Surf Advisory Active Notice: Public Information Statement

Elev 207 ft 34.02 °N, 118.29 °W | Updated 2 seconds ago

Clear
Clear
63.1 °F
Feels Like 63.1 °F
N
4.9
Wind Variable Wind from WSW
Gusts 9.0 mph

Today
High -- | Low -- °F
--% Chance of Precip.
Yesterday
High -- | Low -- °F
Precip. -- in
6:56 AM 4:50 PM
Waxing Crescent, 18% visible
Pressure 29.87 in
Visibility 10.0 miles
Clouds Clear
Dew Point 29 °F
Humidity 27%
Rainfall 0.00 in
Snow Depth Not available.
UV 3 out of 12
Pollen 6.60 out of 12
Air Quality Not available.
Flu Activity Not available.
METAR KCQT 251847Z AUTO 01010G18KT 10SM CLR 18/M07 A2988 RMK AO2 SLP115 T01781072

More Conditions Fewer Conditions

Pressure 29.87 in
Visibility 10.0 miles
Clouds Clear
Dew Point 29 °F
Humidity 27%
Rainfall 0.00 in
Snow Depth Not available.
UV 3 out of 12
Pollen 6.60 out of 12
Air Quality Not available.
Flu Activity Not available.
METAR KCQT 251847Z AUTO 01010G18KT 10SM CLR 18/M07 A2988 RMK AO2 SLP115 T01781072

More Conditions Fewer Conditions

10-Day Weather Forecast

Almanac

Astronomy

Dec. 25, 2014 Rise Set
Actual Time
Civil Twilight
Nautical Twilight
Astronomical Twilight
Moon
Length of Visible Light
Length of Day
Tomorrow will be .
, % of the Moon is Illuminated

Today's Extremes

State Highs State Lows

Community

WunderPhotos

Upload Photos

1,780,374 photos uploaded!

WunderBlogs® & News

Nearby

Air Quality

  Air Quality AQ Index Pollutant
Not available.

Snow Depth

Station Depth Elevation

Earthquake Activity

City Distance Mag. Time & Date
Minimum magnitude displayed is 2.5.

Coastal Water Temperatures

Place Temperature

Nearby Weather Stations